createdAt,value
2023-05-18T00:02:15.977Z,26.80
2023-05-18T00:04:44.073Z,99.90
2023-05-18T00:07:11.660Z,99.90
2023-05-18T00:09:38.752Z,99.90
2023-05-18T00:12:06.555Z,99.90
2023-05-18T00:14:33.646Z,1.00
2023-05-18T00:17:04.062Z,72.40
2023-05-18T00:19:31.578Z,99.90
2023-05-18T00:22:02.329Z,99.90
2023-05-18T00:24:29.447Z,89.70
2023-05-18T00:26:56.844Z,1.00
2023-05-18T00:29:24.031Z,99.90
2023-05-18T00:31:51.365Z,99.90
2023-05-18T00:34:18.526Z,99.90
2023-05-18T00:36:45.950Z,99.90
2023-05-18T00:39:13.196Z,99.90
2023-05-18T00:41:40.595Z,1.00
2023-05-18T00:44:07.785Z,1.00
2023-05-18T00:46:35.325Z,1.00
2023-05-18T00:49:03.100Z,3.00
2023-05-18T00:51:32.907Z,51.20
2023-05-18T00:54:01.618Z,12.00
2023-05-18T00:56:29.599Z,99.90
2023-05-18T00:58:57.571Z,99.90
2023-05-18T01:01:28.910Z,1.00
2023-05-18T01:03:57.769Z,60.70
2023-05-18T01:06:25.548Z,85.00
2023-05-18T01:08:54.689Z,18.90
2023-05-18T01:11:34.043Z,1.00
2023-05-18T01:14:01.955Z,70.20
2023-05-18T01:16:37.444Z,1.00
2023-05-18T01:19:21.217Z,99.90
2023-05-18T01:22:09.092Z,99.90
2023-05-18T01:24:45.647Z,99.90
2023-05-18T01:27:17.839Z,1.00
2023-05-18T01:29:46.696Z,48.10
2023-05-18T01:32:21.896Z,1.00
2023-05-18T01:34:49.319Z,11.50
2023-05-18T01:37:16.652Z,39.90
2023-05-18T01:39:43.793Z,8.80
2023-05-18T01:42:19.375Z,21.00
2023-05-18T01:44:53.709Z,99.90
2023-05-18T01:47:21.329Z,99.90
2023-05-18T01:49:53.516Z,99.90
2023-05-18T01:52:37.513Z,99.90
2023-05-18T01:55:06.482Z,99.90
2023-05-18T01:57:36.933Z,99.90
2023-05-18T02:00:08.109Z,99.90
2023-05-18T02:02:44.754Z,99.90
2023-05-18T02:05:14.349Z,99.90
2023-05-18T02:07:44.148Z,99.90
2023-05-18T02:10:11.976Z,99.90
2023-05-18T02:12:39.482Z,99.90
2023-05-18T02:15:07.635Z,99.90
2023-05-18T02:17:39.054Z,99.90
2023-05-18T02:20:07.738Z,99.90
2023-05-18T02:22:36.104Z,99.90
2023-05-18T02:25:05.012Z,99.90
2023-05-18T02:27:33.422Z,99.90
2023-05-18T02:30:00.959Z,99.90
2023-05-18T02:32:28.315Z,99.90
2023-05-18T02:34:55.364Z,99.90
2023-05-18T02:37:23.248Z,99.90
2023-05-18T02:39:50.644Z,99.90
2023-05-18T02:42:18.022Z,99.90
2023-05-18T02:44:45.152Z,1.00
2023-05-18T02:47:15.547Z,1.00
2023-05-18T02:49:42.716Z,1.00
2023-05-18T02:52:10.058Z,1.00
2023-05-18T02:54:37.339Z,1.00
2023-05-18T02:57:08.860Z,1.00
2023-05-18T02:59:44.199Z,1.00
2023-05-18T03:02:14.437Z,1.00
2023-05-18T03:04:42.385Z,1.00
2023-05-18T03:07:10.575Z,1.00
2023-05-18T03:09:38.222Z,99.90
2023-05-18T03:12:06.761Z,99.90
2023-05-18T03:14:34.578Z,99.90
2023-05-18T03:17:06.041Z,99.90
2023-05-18T03:19:35.243Z,99.90
2023-05-18T03:22:03.844Z,99.90
2023-05-18T03:24:40.117Z,99.90
2023-05-18T03:27:13.055Z,52.50
2023-05-18T03:29:40.867Z,1.00
2023-05-18T03:32:08.406Z,99.90
2023-05-18T03:34:37.180Z,99.90
2023-05-18T03:37:04.816Z,99.90
2023-05-18T03:39:33.448Z,1.00
2023-05-18T03:42:01.352Z,99.90
2023-05-18T03:44:28.584Z,99.90
2023-05-18T03:46:57.485Z,99.90
2023-05-18T03:49:24.622Z,99.90
2023-05-18T03:51:56.421Z,97.40
2023-05-18T03:54:24.651Z,31.30
2023-05-18T03:56:52.147Z,28.10
2023-05-18T03:59:19.671Z,1.00
2023-05-18T04:01:47.131Z,1.00
2023-05-18T04:04:18.337Z,1.00
2023-05-18T04:06:49.327Z,99.90
2023-05-18T04:09:17.357Z,99.90
2023-05-18T04:11:45.224Z,99.90
2023-05-18T04:14:14.344Z,99.90
2023-05-18T04:16:41.923Z,99.90
2023-05-18T04:19:10.397Z,99.90
2023-05-18T04:21:37.985Z,99.90
2023-05-18T04:24:07.129Z,99.90
2023-05-18T04:26:36.608Z,99.90
2023-05-18T04:29:03.933Z,99.90
2023-05-18T04:31:31.428Z,99.90
2023-05-18T04:34:00.514Z,99.90
2023-05-18T04:36:30.600Z,99.90
2023-05-18T04:39:00.964Z,99.90
2023-05-18T04:41:29.070Z,99.90
2023-05-18T04:43:56.126Z,99.90
2023-05-18T04:46:24.377Z,99.90
2023-05-18T04:48:53.152Z,99.90
2023-05-18T04:51:29.627Z,99.90
2023-05-18T04:53:56.770Z,99.90
2023-05-18T04:56:24.088Z,99.90
2023-05-18T04:58:51.544Z,99.90
2023-05-18T05:01:19.300Z,99.90
2023-05-18T05:03:46.596Z,99.90
2023-05-18T05:06:14.426Z,99.90
2023-05-18T05:08:41.492Z,99.90
2023-05-18T05:11:08.829Z,99.90
2023-05-18T05:13:36.543Z,99.90
2023-05-18T05:16:04.143Z,99.90
2023-05-18T05:18:31.224Z,99.90
2023-05-18T05:20:59.565Z,99.90
2023-05-18T05:23:26.942Z,99.90
2023-05-18T05:25:55.219Z,99.90
2023-05-18T05:28:22.282Z,99.90
2023-05-18T05:30:49.637Z,99.90
2023-05-18T05:33:17.709Z,99.90
2023-05-18T05:35:45.468Z,99.90
2023-05-18T05:38:13.284Z,99.90
2023-05-18T05:40:40.830Z,99.90
2023-05-18T05:43:09.139Z,99.90
2023-05-18T05:45:36.754Z,99.90
2023-05-18T05:48:07.472Z,99.90
2023-05-18T05:50:36.074Z,99.90
2023-05-18T05:53:05.478Z,99.90
2023-05-18T05:55:41.951Z,99.90
2023-05-18T05:58:13.164Z,99.90
2023-05-18T06:00:43.698Z,99.90
2023-05-18T06:03:11.088Z,99.90
2023-05-18T06:05:42.152Z,99.90
2023-05-18T06:08:10.824Z,99.90
2023-05-18T06:10:39.312Z,99.90
2023-05-18T06:13:07.224Z,99.90
2023-05-18T06:15:41.995Z,99.90
2023-05-18T06:18:11.437Z,99.90
2023-05-18T06:20:40.363Z,99.90
2023-05-18T06:23:07.595Z,99.90
2023-05-18T06:25:47.327Z,99.90
2023-05-18T06:28:37.406Z,99.90
2023-05-18T06:31:17.062Z,99.90
2023-05-18T06:33:50.900Z,99.90
2023-05-18T06:36:18.488Z,99.90
2023-05-18T06:38:45.828Z,99.90
2023-05-18T06:41:13.231Z,99.90
2023-05-18T06:43:40.656Z,99.90
2023-05-18T06:46:29.209Z,99.90
2023-05-18T06:49:05.920Z,99.90
2023-05-18T06:51:33.885Z,99.90
2023-05-18T06:54:01.203Z,99.90
2023-05-18T06:56:29.050Z,99.90
2023-05-18T06:58:56.284Z,99.90
2023-05-18T07:01:25.040Z,99.90
2023-05-18T07:03:54.991Z,99.90
2023-05-18T07:06:22.522Z,99.90
2023-05-18T07:08:49.998Z,99.90
2023-05-18T07:11:18.452Z,99.90
2023-05-18T07:13:45.445Z,99.90
2023-05-18T07:16:12.938Z,99.90
2023-05-18T07:18:42.206Z,99.90
2023-05-18T07:21:09.629Z,99.90
2023-05-18T07:23:36.764Z,99.90
2023-05-18T07:26:04.155Z,99.90
2023-05-18T07:28:31.286Z,99.90
2023-05-18T07:30:58.737Z,99.90
2023-05-18T07:33:25.824Z,99.90
2023-05-18T07:35:53.131Z,99.90
2023-05-18T07:38:20.256Z,99.90
2023-05-18T07:40:47.545Z,99.90
2023-05-18T07:43:14.616Z,99.90
2023-05-18T07:45:42.313Z,99.90
2023-05-18T07:48:09.547Z,99.90
2023-05-18T07:50:37.037Z,99.90
2023-05-18T07:53:04.184Z,99.90
2023-05-18T07:55:31.909Z,99.90
2023-05-18T07:58:01.133Z,99.90
2023-05-18T08:00:28.554Z,99.90
2023-05-18T08:02:55.995Z,99.90
2023-05-18T08:05:23.466Z,99.90
2023-05-18T08:07:51.017Z,99.90
2023-05-18T08:10:18.572Z,99.90
2023-05-18T08:12:45.790Z,99.90
2023-05-18T08:15:13.105Z,99.90
2023-05-18T08:17:40.675Z,99.90
2023-05-18T08:20:08.846Z,99.90
2023-05-18T08:22:36.338Z,99.90
2023-05-18T08:25:04.210Z,99.90
2023-05-18T08:27:31.513Z,99.90
2023-05-18T08:30:01.098Z,99.90
2023-05-18T08:32:28.286Z,99.90
2023-05-18T08:34:57.221Z,99.90
2023-05-18T08:37:29.552Z,99.90
2023-05-18T08:39:57.333Z,99.90
2023-05-18T08:42:48.705Z,99.90
2023-05-18T08:45:28.985Z,99.90
2023-05-18T08:47:59.892Z,99.90
2023-05-18T08:50:31.132Z,99.90
2023-05-18T08:53:01.810Z,99.90
2023-05-18T08:55:37.524Z,99.90
2023-05-18T08:58:07.847Z,99.90
2023-05-18T09:00:36.966Z,99.90
2023-05-18T09:03:06.114Z,99.90
2023-05-18T09:05:33.956Z,99.90
2023-05-18T09:08:03.378Z,99.90
2023-05-18T09:10:33.597Z,99.90
2023-05-18T09:13:02.774Z,99.90
2023-05-18T09:15:30.371Z,99.90
2023-05-18T09:17:57.820Z,99.90
2023-05-18T09:20:26.313Z,99.90
2023-05-18T09:22:53.752Z,99.90
2023-05-18T09:25:21.710Z,99.90
2023-05-18T09:27:49.189Z,99.90
2023-05-18T09:30:16.696Z,99.90
2023-05-18T09:32:47.124Z,99.90
2023-05-18T09:35:14.533Z,99.90
2023-05-18T09:37:42.868Z,99.90
2023-05-18T09:40:10.700Z,99.90
2023-05-18T09:42:42.912Z,99.90
2023-05-18T09:45:29.261Z,99.90
2023-05-18T09:47:57.141Z,99.90
2023-05-18T09:50:25.606Z,99.90
2023-05-18T09:52:54.427Z,99.90
2023-05-18T09:55:21.758Z,99.90
2023-05-18T09:57:53.321Z,99.90
2023-05-18T10:00:23.519Z,99.90
2023-05-18T10:02:54.805Z,99.90
2023-05-18T10:05:35.952Z,99.90
2023-05-18T10:08:03.464Z,99.90
2023-05-18T10:10:31.094Z,99.90
2023-05-18T10:12:58.673Z,99.90
2023-05-18T10:15:26.333Z,99.90
2023-05-18T10:17:56.934Z,99.90
2023-05-18T10:20:26.918Z,99.90
2023-05-18T10:22:56.428Z,99.90
2023-05-18T10:25:27.058Z,99.90
2023-05-18T10:28:02.219Z,99.90
2023-05-18T10:30:30.766Z,99.90
2023-05-18T10:33:01.635Z,99.90
2023-05-18T10:35:30.291Z,99.90
2023-05-18T10:37:59.304Z,99.90
2023-05-18T10:40:28.845Z,99.90
2023-05-18T10:42:58.815Z,99.90
2023-05-18T10:45:27.431Z,99.90
2023-05-18T10:47:57.286Z,99.90
2023-05-18T10:50:26.299Z,99.90
2023-05-18T10:52:55.761Z,99.90
2023-05-18T10:55:23.559Z,99.90
2023-05-18T10:57:57.050Z,99.90
2023-05-18T11:00:24.658Z,99.90
2023-05-18T11:02:54.211Z,99.90
2023-05-18T11:05:26.836Z,99.90
2023-05-18T11:08:03.339Z,99.90
2023-05-18T11:10:48.677Z,99.90
2023-05-18T11:13:15.813Z,99.90
2023-05-18T11:16:15.836Z,99.90
2023-05-18T11:18:51.405Z,99.90
2023-05-18T11:21:22.233Z,99.90
2023-05-18T11:24:17.892Z,99.90
2023-05-18T11:26:46.963Z,99.90
2023-05-18T11:29:40.657Z,99.90
2023-05-18T11:32:30.486Z,99.90
2023-05-18T11:34:59.960Z,99.90
2023-05-18T11:37:39.757Z,99.90
2023-05-18T11:40:11.667Z,99.90
2023-05-18T11:42:39.965Z,99.90
2023-05-18T11:45:11.674Z,99.90
2023-05-18T11:47:42.904Z,99.90
2023-05-18T11:50:14.040Z,99.90
2023-05-18T11:52:52.577Z,99.90
2023-05-18T11:55:21.168Z,99.90
2023-05-18T11:57:54.633Z,99.90
2023-05-18T12:00:24.057Z,99.90
2023-05-18T12:02:52.702Z,99.90
2023-05-18T12:05:20.187Z,99.90
2023-05-18T12:07:53.692Z,99.90
2023-05-18T12:10:22.308Z,99.90
2023-05-18T12:12:52.944Z,99.90
2023-05-18T12:15:24.477Z,99.90
2023-05-18T12:17:52.425Z,99.90
2023-05-18T12:20:25.064Z,99.90
2023-05-18T12:22:54.608Z,99.90
2023-05-18T12:25:26.984Z,99.90
2023-05-18T12:27:56.995Z,99.90
2023-05-18T12:30:26.123Z,99.90
2023-05-18T12:32:55.590Z,99.90
2023-05-18T12:35:27.332Z,99.90
2023-05-18T12:37:58.617Z,99.90
2023-05-18T12:40:26.490Z,99.90
2023-05-18T12:42:55.729Z,99.90
2023-05-18T12:45:26.505Z,99.90
2023-05-18T12:47:55.481Z,99.90
2023-05-18T12:50:31.137Z,99.90
2023-05-18T12:52:58.745Z,99.90
2023-05-18T12:55:26.561Z,99.90
2023-05-18T12:58:03.778Z,99.90
2023-05-18T13:00:37.933Z,99.90
2023-05-18T13:03:16.094Z,99.90
2023-05-18T13:05:47.854Z,99.90
2023-05-18T13:08:23.470Z,99.90
2023-05-18T13:11:01.107Z,99.90
2023-05-18T13:13:33.832Z,99.90
2023-05-18T13:16:01.130Z,99.90
2023-05-18T13:18:31.066Z,99.90
2023-05-18T13:20:58.665Z,99.90
2023-05-18T13:23:30.083Z,99.90
2023-05-18T13:25:58.847Z,99.90
2023-05-18T13:28:27.170Z,99.90
2023-05-18T13:30:54.191Z,99.90
2023-05-18T13:33:21.641Z,99.90
2023-05-18T13:35:49.932Z,99.90
2023-05-18T13:38:17.753Z,99.90
2023-05-18T13:40:47.747Z,99.90
2023-05-18T13:43:15.120Z,99.90
2023-05-18T13:45:43.238Z,99.90
2023-05-18T13:48:11.291Z,99.90
2023-05-18T13:50:39.669Z,99.90
2023-05-18T13:53:07.342Z,99.90
2023-05-18T13:55:36.879Z,99.90
2023-05-18T13:58:04.316Z,99.90
2023-05-18T14:00:33.826Z,99.90
2023-05-18T14:03:01.795Z,99.90
2023-05-18T14:05:29.034Z,99.90
2023-05-18T14:07:56.845Z,99.90
2023-05-18T14:10:26.619Z,99.90
2023-05-18T14:12:54.144Z,99.90
2023-05-18T14:15:21.579Z,99.90
2023-05-18T14:17:49.012Z,99.90
2023-05-18T14:20:16.243Z,99.90
2023-05-18T14:22:43.608Z,99.90
2023-05-18T14:25:10.632Z,99.90
2023-05-18T14:27:38.010Z,99.90
2023-05-18T14:30:07.329Z,99.90
2023-05-18T14:32:34.971Z,99.90
2023-05-18T14:35:02.029Z,99.90
2023-05-18T14:37:29.362Z,99.90
2023-05-18T14:39:56.546Z,99.90
2023-05-18T14:42:24.013Z,99.90
2023-05-18T14:44:51.167Z,99.90
2023-05-18T14:47:18.684Z,99.90
2023-05-18T14:49:45.895Z,99.90
2023-05-18T14:52:15.866Z,99.90
2023-05-18T14:54:43.097Z,99.90
2023-05-18T14:57:10.857Z,99.90
2023-05-18T14:59:38.064Z,99.90
2023-05-18T15:02:07.609Z,99.90
2023-05-18T15:04:36.329Z,99.90
2023-05-18T15:07:04.738Z,99.90
2023-05-18T15:09:31.987Z,99.90
2023-05-18T15:11:59.452Z,99.90
2023-05-18T15:14:26.599Z,99.90
2023-05-18T15:16:53.989Z,99.90
2023-05-18T15:19:21.064Z,99.90
2023-05-18T15:21:48.912Z,99.90
2023-05-18T15:24:15.940Z,99.90
2023-05-18T15:26:46.211Z,99.90
2023-05-18T15:29:13.666Z,99.90
2023-05-18T15:31:41.497Z,99.90
2023-05-18T15:34:08.698Z,99.90
2023-05-18T15:36:37.541Z,99.90
2023-05-18T15:39:04.764Z,99.90
2023-05-18T15:41:35.691Z,99.90
2023-05-18T15:44:03.066Z,99.90
2023-05-18T15:46:32.184Z,99.90
2023-05-18T15:49:00.770Z,99.90
2023-05-18T15:51:28.357Z,99.90
2023-05-18T15:53:55.644Z,99.90
2023-05-18T15:56:23.383Z,99.90
2023-05-18T15:58:50.669Z,99.90
2023-05-18T16:01:18.400Z,99.90
2023-05-18T16:03:45.996Z,99.90
2023-05-18T16:06:13.529Z,99.90
2023-05-18T16:08:40.625Z,99.90
2023-05-18T16:11:08.092Z,99.90
2023-05-18T16:13:35.089Z,99.90
2023-05-18T16:16:08.835Z,99.90
2023-05-18T16:18:36.738Z,99.90
2023-05-18T16:21:04.266Z,99.90
2023-05-18T16:23:31.290Z,99.90
2023-05-18T16:25:59.911Z,99.90
2023-05-18T16:28:27.076Z,99.90
2023-05-18T16:30:54.536Z,99.90
2023-05-18T16:33:21.978Z,99.90
2023-05-18T16:35:51.690Z,99.90
2023-05-18T16:38:19.708Z,99.90
2023-05-18T16:40:47.258Z,99.90
2023-05-18T16:43:14.332Z,99.90
2023-05-18T16:45:42.465Z,99.90
2023-05-18T16:48:09.794Z,99.90
2023-05-18T16:50:41.315Z,99.90
2023-05-18T16:53:08.417Z,99.90
2023-05-18T16:55:35.845Z,99.90
2023-05-18T16:58:03.410Z,99.90
2023-05-18T17:00:31.427Z,99.90
2023-05-18T17:02:59.047Z,99.90
2023-05-18T17:05:26.610Z,99.90
2023-05-18T17:07:54.996Z,99.90
2023-05-18T17:10:22.696Z,99.90
2023-05-18T17:12:51.762Z,99.90
2023-05-18T17:15:19.158Z,99.90
2023-05-18T17:17:47.787Z,99.90
2023-05-18T17:20:15.451Z,99.90
2023-05-18T17:22:42.791Z,99.90
2023-05-18T17:25:12.914Z,99.90
2023-05-18T17:27:39.899Z,99.90
2023-05-18T17:30:08.829Z,99.90
2023-05-18T17:32:36.147Z,99.90
2023-05-18T17:35:08.355Z,99.90
2023-05-18T17:37:36.055Z,99.90
2023-05-18T17:40:05.857Z,99.90
2023-05-18T17:42:32.880Z,99.90
2023-05-18T17:45:00.414Z,99.90
2023-05-18T17:47:27.445Z,99.90
2023-05-18T17:49:56.555Z,99.90
2023-05-18T17:52:23.740Z,99.90
2023-05-18T17:54:52.276Z,99.90
2023-05-18T17:57:22.976Z,99.90
2023-05-18T17:59:50.354Z,99.90
2023-05-18T18:02:17.471Z,99.90
2023-05-18T18:04:44.973Z,99.90
2023-05-18T18:07:12.090Z,99.90
2023-05-18T18:09:39.674Z,99.90
2023-05-18T18:12:07.177Z,99.90
2023-05-18T18:14:34.558Z,99.90
2023-05-18T18:17:01.802Z,99.90
2023-05-18T18:19:29.534Z,99.90
2023-05-18T18:21:57.196Z,99.90
2023-05-18T18:24:24.627Z,99.90
2023-05-18T18:26:52.731Z,99.90
2023-05-18T18:29:20.141Z,99.90
2023-05-18T18:31:47.256Z,99.90
2023-05-18T18:34:14.637Z,99.90
2023-05-18T18:36:42.011Z,99.90
2023-05-18T18:39:09.796Z,99.90
2023-05-18T18:41:37.076Z,99.90
2023-05-18T18:44:04.564Z,99.90
2023-05-18T18:46:33.337Z,99.90
2023-05-18T18:49:00.802Z,99.90
2023-05-18T18:51:28.289Z,99.90
2023-05-18T18:53:55.980Z,99.90
2023-05-18T18:56:24.845Z,99.90
2023-05-18T18:58:52.435Z,99.90
2023-05-18T19:01:19.551Z,99.90
2023-05-18T19:03:46.956Z,99.90
2023-05-18T19:06:14.911Z,99.90
2023-05-18T19:08:42.447Z,99.90
2023-05-18T19:11:09.613Z,99.90
2023-05-18T19:13:39.229Z,99.90
2023-05-18T19:16:06.753Z,99.90
2023-05-18T19:18:34.825Z,99.90
2023-05-18T19:21:02.710Z,99.90
2023-05-18T19:23:30.939Z,99.90
2023-05-18T19:25:59.499Z,99.90
2023-05-18T19:28:26.955Z,99.90
2023-05-18T19:30:57.066Z,99.90
2023-05-18T19:33:24.670Z,99.90
2023-05-18T19:35:54.413Z,99.90
2023-05-18T19:38:21.795Z,99.90
2023-05-18T19:40:49.037Z,99.90
2023-05-18T19:43:16.993Z,99.90
2023-05-18T19:45:44.195Z,99.90
2023-05-18T19:48:12.524Z,99.90
2023-05-18T19:50:39.698Z,99.90
2023-05-18T19:53:07.192Z,99.90
2023-05-18T19:55:34.296Z,99.90
2023-05-18T19:58:02.763Z,99.90
2023-05-18T20:00:29.982Z,99.90
2023-05-18T20:02:58.865Z,99.90
2023-05-18T20:05:25.985Z,99.90
2023-05-18T20:07:53.541Z,99.90
2023-05-18T20:10:21.036Z,99.90
2023-05-18T20:12:48.434Z,99.90
2023-05-18T20:15:15.521Z,99.90
2023-05-18T20:17:43.288Z,99.90
2023-05-18T20:20:10.490Z,99.90
2023-05-18T20:22:39.021Z,99.90
2023-05-18T20:25:06.891Z,99.90
2023-05-18T20:27:35.021Z,99.90
2023-05-18T20:30:02.338Z,99.90
2023-05-18T20:32:30.250Z,99.90
2023-05-18T20:34:59.192Z,99.90
2023-05-18T20:37:26.986Z,99.90
2023-05-18T20:39:57.541Z,99.90
2023-05-18T20:42:31.890Z,1.00
2023-05-18T20:44:59.200Z,1.00
2023-05-18T20:47:27.027Z,1.00
2023-05-18T20:49:54.239Z,1.00
2023-05-18T20:52:21.890Z,1.00
2023-05-18T20:54:49.147Z,1.00
2023-05-18T20:57:16.892Z,1.00
2023-05-18T20:59:44.105Z,1.00
2023-05-18T21:02:11.611Z,1.00
2023-05-18T21:04:40.038Z,1.00
2023-05-18T21:07:07.653Z,1.00
2023-05-18T21:09:35.023Z,1.00
2023-05-18T21:12:02.751Z,1.00
2023-05-18T21:14:30.032Z,1.00
2023-05-18T21:17:00.210Z,1.80
2023-05-18T21:19:27.743Z,4.50
2023-05-18T21:21:55.673Z,12.40
2023-05-18T21:24:22.875Z,19.40
2023-05-18T21:26:50.726Z,6.00
2023-05-18T21:29:18.052Z,14.00
2023-05-18T21:31:47.870Z,25.50
2023-05-18T21:34:16.559Z,10.20
2023-05-18T21:36:44.212Z,2.60
2023-05-18T21:39:11.684Z,4.30
2023-05-18T21:41:40.406Z,1.00
2023-05-18T21:44:07.874Z,1.00
2023-05-18T21:46:36.822Z,1.00
2023-05-18T21:49:06.371Z,1.00
2023-05-18T21:51:33.971Z,1.00
2023-05-18T21:54:02.165Z,1.00
2023-05-18T21:56:30.088Z,1.00
2023-05-18T21:58:57.512Z,1.00
2023-05-18T22:01:25.019Z,1.00
2023-05-18T22:03:52.453Z,1.00
2023-05-18T22:06:20.132Z,1.00
2023-05-18T22:08:47.498Z,1.00
2023-05-18T22:11:15.009Z,99.90
2023-05-18T22:13:42.258Z,99.90
2023-05-18T22:16:09.673Z,99.90
2023-05-18T22:18:36.807Z,99.90
2023-05-18T22:21:04.348Z,99.90
2023-05-18T22:23:31.472Z,99.90
2023-05-18T22:25:58.934Z,99.90
2023-05-18T22:28:26.052Z,99.90
2023-05-18T22:30:53.755Z,99.90
2023-05-18T22:33:23.875Z,99.90
2023-05-18T22:35:51.456Z,99.90
2023-05-18T22:38:18.667Z,99.90
2023-05-18T22:40:46.187Z,99.90
2023-05-18T22:43:13.275Z,99.90
2023-05-18T22:45:40.863Z,99.90
2023-05-18T22:48:08.032Z,99.90
2023-05-18T22:50:35.668Z,99.90
2023-05-18T22:53:02.871Z,99.90
2023-05-18T22:55:30.515Z,99.90
2023-05-18T22:57:57.936Z,99.90
2023-05-18T23:00:27.177Z,99.90
2023-05-18T23:02:54.313Z,99.90
2023-05-18T23:05:21.737Z,99.90
2023-05-18T23:07:50.100Z,99.90
2023-05-18T23:10:18.554Z,99.90
2023-05-18T23:12:48.324Z,99.90
2023-05-18T23:15:15.876Z,99.90
2023-05-18T23:17:42.973Z,99.90
2023-05-18T23:20:11.544Z,99.90
2023-05-18T23:22:38.573Z,99.90
2023-05-18T23:25:08.729Z,99.90
2023-05-18T23:27:36.123Z,99.90
2023-05-18T23:30:03.779Z,99.90
2023-05-18T23:32:35.047Z,99.90
2023-05-18T23:35:06.276Z,99.90
2023-05-18T23:37:35.026Z,99.90
2023-05-18T23:40:02.903Z,99.90
2023-05-18T23:42:30.477Z,99.90
2023-05-18T23:44:58.093Z,99.90
2023-05-18T23:47:25.660Z,99.90
2023-05-18T23:49:53.193Z,99.90
2023-05-18T23:52:23.149Z,99.90
2023-05-18T23:54:53.500Z,99.90
2023-05-18T23:57:21.008Z,99.90
2023-05-18T23:59:49.041Z,99.90
